Terminal Aerodrome Forecast
Issued by NWS

Home | Current Version | Previous Version | Text Only | Print | Product List | Glossary On
Versions: 1 2 3 4 5 6 7 8 9 10 11 12 13 14 15 16 17 18 19
000
FTUS43 KEAX 070234 AAA
TAFSTJ
TAF AMD
KSTJ 070234Z 0703/0724 36009KT 4SM -RA OVC025
      TEMPO 0703/0706 BKN004
     FM070600 01012KT P6SM OVC025
     FM071100 01011G20KT P6SM OVC100=

USA.gov is the U.S. government's official web portal to all federal, state and local government web resources and services.